sensor_id;sensor_type;location;lat;lon;timestamp;temperature;humidity
5392;DHT22;2719;53.624;9.786;2022-10-16T00:01:16;14.70;99.90
5392;DHT22;2719;53.624;9.786;2022-10-16T00:03:44;14.70;99.90
5392;DHT22;2719;53.624;9.786;2022-10-16T00:06:11;14.70;99.90
5392;DHT22;2719;53.624;9.786;2022-10-16T00:08:39;14.60;99.90
5392;DHT22;2719;53.624;9.786;2022-10-16T00:11:09;14.60;99.90
5392;DHT22;2719;53.624;9.786;2022-10-16T00:13:38;14.60;99.90
5392;DHT22;2719;53.624;9.786;2022-10-16T00:16:06;14.60;99.90
5392;DHT22;2719;53.624;9.786;2022-10-16T00:18:33;14.60;99.90
5392;DHT22;2719;53.624;9.786;2022-10-16T00:21:05;14.60;99.90
5392;DHT22;2719;53.624;9.786;2022-10-16T00:23:32;14.60;99.90
5392;DHT22;2719;53.624;9.786;2022-10-16T00:26:00;14.60;99.90
5392;DHT22;2719;53.624;9.786;2022-10-16T00:28:27;14.60;99.90
5392;DHT22;2719;53.624;9.786;2022-10-16T00:30:56;14.60;99.90
5392;DHT22;2719;53.624;9.786;2022-10-16T00:33:23;14.60;99.90
5392;DHT22;2719;53.624;9.786;2022-10-16T00:35:50;14.60;99.90
5392;DHT22;2719;53.624;9.786;2022-10-16T00:38:17;14.60;99.90
5392;DHT22;2719;53.624;9.786;2022-10-16T00:40:43;14.60;99.90
5392;DHT22;2719;53.624;9.786;2022-10-16T00:43:31;14.60;99.90
5392;DHT22;2719;53.624;9.786;2022-10-16T00:46:00;14.60;99.90
5392;DHT22;2719;53.624;9.786;2022-10-16T00:48:27;14.60;99.90
5392;DHT22;2719;53.624;9.786;2022-10-16T00:50:54;14.60;99.90
5392;DHT22;2719;53.624;9.786;2022-10-16T00:53:22;14.60;99.90
5392;DHT22;2719;53.624;9.786;2022-10-16T00:55:49;14.60;99.90
5392;DHT22;2719;53.624;9.786;2022-10-16T00:58:16;14.60;99.90
5392;DHT22;2719;53.624;9.786;2022-10-16T01:00:43;14.60;99.90
5392;DHT22;2719;53.624;9.786;2022-10-16T01:03:26;14.60;99.90
5392;DHT22;2719;53.624;9.786;2022-10-16T01:06:04;14.60;99.90
5392;DHT22;2719;53.624;9.786;2022-10-16T01:08:39;14.60;99.90
5392;DHT22;2719;53.624;9.786;2022-10-16T01:11:13;14.60;99.90
5392;DHT22;2719;53.624;9.786;2022-10-16T01:13:47;14.60;99.90
5392;DHT22;2719;53.624;9.786;2022-10-16T01:16:21;14.50;99.90
5392;DHT22;2719;53.624;9.786;2022-10-16T01:18:56;14.60;99.90
5392;DHT22;2719;53.624;9.786;2022-10-16T01:21:27;14.60;99.90
5392;DHT22;2719;53.624;9.786;2022-10-16T01:24:04;14.50;99.90
5392;DHT22;2719;53.624;9.786;2022-10-16T01:26:42;14.40;99.90
5392;DHT22;2719;53.624;9.786;2022-10-16T01:29:20;14.40;99.90
5392;DHT22;2719;53.624;9.786;2022-10-16T01:31:49;14.40;99.90
5392;DHT22;2719;53.624;9.786;2022-10-16T01:34:20;14.40;99.90
5392;DHT22;2719;53.624;9.786;2022-10-16T01:36:52;14.30;99.90
5392;DHT22;2719;53.624;9.786;2022-10-16T01:39:22;14.40;99.90
5392;DHT22;2719;53.624;9.786;2022-10-16T01:41:55;14.30;99.90
5392;DHT22;2719;53.624;9.786;2022-10-16T01:44:28;14.30;99.90
5392;DHT22;2719;53.624;9.786;2022-10-16T01:46:55;14.30;99.90
5392;DHT22;2719;53.624;9.786;2022-10-16T01:49:25;14.20;99.90
5392;DHT22;2719;53.624;9.786;2022-10-16T01:51:56;14.20;99.90
5392;DHT22;2719;53.624;9.786;2022-10-16T01:54:27;14.20;99.90
5392;DHT22;2719;53.624;9.786;2022-10-16T01:56:55;14.20;99.90
5392;DHT22;2719;53.624;9.786;2022-10-16T01:59:26;14.20;99.90
5392;DHT22;2719;53.624;9.786;2022-10-16T02:01:56;14.20;99.90
5392;DHT22;2719;53.624;9.786;2022-10-16T02:04:29;14.10;99.90
5392;DHT22;2719;53.624;9.786;2022-10-16T02:06:57;14.10;99.90
5392;DHT22;2719;53.624;9.786;2022-10-16T02:09:24;14.10;99.90
5392;DHT22;2719;53.624;9.786;2022-10-16T02:11:53;14.10;99.90
5392;DHT22;2719;53.624;9.786;2022-10-16T02:14:21;14.10;99.90
5392;DHT22;2719;53.624;9.786;2022-10-16T02:16:51;14.10;99.90
5392;DHT22;2719;53.624;9.786;2022-10-16T02:19:18;14.00;99.90
5392;DHT22;2719;53.624;9.786;2022-10-16T02:21:51;13.90;99.90
5392;DHT22;2719;53.624;9.786;2022-10-16T02:24:24;13.90;99.90
5392;DHT22;2719;53.624;9.786;2022-10-16T02:26:57;13.90;99.90
5392;DHT22;2719;53.624;9.786;2022-10-16T02:29:27;13.90;99.90
5392;DHT22;2719;53.624;9.786;2022-10-16T02:31:58;13.90;99.90
5392;DHT22;2719;53.624;9.786;2022-10-16T02:34:27;13.90;99.90
5392;DHT22;2719;53.624;9.786;2022-10-16T02:36:55;13.80;99.90
5392;DHT22;2719;53.624;9.786;2022-10-16T02:39:22;13.90;99.90
5392;DHT22;2719;53.624;9.786;2022-10-16T02:41:49;13.90;99.90
5392;DHT22;2719;53.624;9.786;2022-10-16T02:44:16;13.90;99.90
5392;DHT22;2719;53.624;9.786;2022-10-16T02:46:43;13.90;99.90
5392;DHT22;2719;53.624;9.786;2022-10-16T02:49:11;13.80;99.90
5392;DHT22;2719;53.624;9.786;2022-10-16T02:51:37;13.90;99.90
5392;DHT22;2719;53.624;9.786;2022-10-16T02:54:04;13.80;99.90
5392;DHT22;2719;53.624;9.786;2022-10-16T02:56:31;13.80;99.90
5392;DHT22;2719;53.624;9.786;2022-10-16T02:58:57;13.80;99.90
5392;DHT22;2719;53.624;9.786;2022-10-16T03:01:24;13.80;99.90
5392;DHT22;2719;53.624;9.786;2022-10-16T03:03:51;13.80;99.90
5392;DHT22;2719;53.624;9.786;2022-10-16T03:06:19;13.70;99.90
5392;DHT22;2719;53.624;9.786;2022-10-16T03:08:46;13.70;99.90
5392;DHT22;2719;53.624;9.786;2022-10-16T03:11:12;13.70;99.90
5392;DHT22;2719;53.624;9.786;2022-10-16T03:13:39;13.70;99.90
5392;DHT22;2719;53.624;9.786;2022-10-16T03:16:06;13.60;99.90
5392;DHT22;2719;53.624;9.786;2022-10-16T03:18:32;13.60;99.90
5392;DHT22;2719;53.624;9.786;2022-10-16T03:20:59;13.60;99.90
5392;DHT22;2719;53.624;9.786;2022-10-16T03:23:27;13.50;99.90
5392;DHT22;2719;53.624;9.786;2022-10-16T03:25:54;13.50;99.90
5392;DHT22;2719;53.624;9.786;2022-10-16T03:28:20;13.50;99.90
5392;DHT22;2719;53.624;9.786;2022-10-16T03:30:47;13.50;99.90
5392;DHT22;2719;53.624;9.786;2022-10-16T03:33:14;13.50;99.90
5392;DHT22;2719;53.624;9.786;2022-10-16T03:35:40;13.40;99.90
5392;DHT22;2719;53.624;9.786;2022-10-16T03:38:07;13.40;99.90
5392;DHT22;2719;53.624;9.786;2022-10-16T03:40:35;13.40;99.90
5392;DHT22;2719;53.624;9.786;2022-10-16T03:43:02;13.30;99.90
5392;DHT22;2719;53.624;9.786;2022-10-16T03:45:28;13.30;99.90
5392;DHT22;2719;53.624;9.786;2022-10-16T03:47:55;13.30;99.90
5392;DHT22;2719;53.624;9.786;2022-10-16T03:50:21;13.30;99.90
5392;DHT22;2719;53.624;9.786;2022-10-16T03:52:48;13.20;99.90
5392;DHT22;2719;53.624;9.786;2022-10-16T03:55:15;13.20;99.90
5392;DHT22;2719;53.624;9.786;2022-10-16T03:57:43;13.20;99.90
5392;DHT22;2719;53.624;9.786;2022-10-16T04:00:11;13.20;99.90
5392;DHT22;2719;53.624;9.786;2022-10-16T04:02:38;13.20;99.90
5392;DHT22;2719;53.624;9.786;2022-10-16T04:05:05;13.20;99.90
5392;DHT22;2719;53.624;9.786;2022-10-16T04:07:32;13.20;99.90
5392;DHT22;2719;53.624;9.786;2022-10-16T04:09:58;13.20;99.90
5392;DHT22;2719;53.624;9.786;2022-10-16T04:12:25;13.20;99.90
5392;DHT22;2719;53.624;9.786;2022-10-16T04:14:53;13.20;99.90
5392;DHT22;2719;53.624;9.786;2022-10-16T04:17:20;13.20;99.90
5392;DHT22;2719;53.624;9.786;2022-10-16T04:19:47;13.20;99.90
5392;DHT22;2719;53.624;9.786;2022-10-16T04:22:13;13.20;99.90
5392;DHT22;2719;53.624;9.786;2022-10-16T04:24:40;13.10;99.90
5392;DHT22;2719;53.624;9.786;2022-10-16T04:27:07;13.10;99.90
5392;DHT22;2719;53.624;9.786;2022-10-16T04:29:33;13.20;99.90
5392;DHT22;2719;53.624;9.786;2022-10-16T04:32:01;13.20;99.90
5392;DHT22;2719;53.624;9.786;2022-10-16T04:34:28;13.10;99.90
5392;DHT22;2719;53.624;9.786;2022-10-16T04:36:55;13.10;99.90
5392;DHT22;2719;53.624;9.786;2022-10-16T04:39:21;13.10;99.90
5392;DHT22;2719;53.624;9.786;2022-10-16T04:41:48;13.10;99.90
5392;DHT22;2719;53.624;9.786;2022-10-16T04:44:15;13.10;99.90
5392;DHT22;2719;53.624;9.786;2022-10-16T04:46:41;13.10;99.90
5392;DHT22;2719;53.624;9.786;2022-10-16T04:49:11;13.00;99.90
5392;DHT22;2719;53.624;9.786;2022-10-16T04:51:37;13.00;99.90
5392;DHT22;2719;53.624;9.786;2022-10-16T04:54:04;13.00;99.90
5392;DHT22;2719;53.624;9.786;2022-10-16T04:56:30;13.00;99.90
5392;DHT22;2719;53.624;9.786;2022-10-16T04:58:57;12.90;99.90
5392;DHT22;2719;53.624;9.786;2022-10-16T05:01:24;12.90;99.90
5392;DHT22;2719;53.624;9.786;2022-10-16T05:03:51;12.90;99.90
5392;DHT22;2719;53.624;9.786;2022-10-16T05:06:19;13.00;99.90
5392;DHT22;2719;53.624;9.786;2022-10-16T05:08:45;13.00;99.90
5392;DHT22;2719;53.624;9.786;2022-10-16T05:11:12;12.90;99.90
5392;DHT22;2719;53.624;9.786;2022-10-16T05:13:38;12.90;99.90
5392;DHT22;2719;53.624;9.786;2022-10-16T05:16:06;13.00;99.90
5392;DHT22;2719;53.624;9.786;2022-10-16T05:18:32;12.90;99.90
5392;DHT22;2719;53.624;9.786;2022-10-16T05:20:59;12.90;99.90
5392;DHT22;2719;53.624;9.786;2022-10-16T05:23:27;13.00;99.90
5392;DHT22;2719;53.624;9.786;2022-10-16T05:25:54;13.00;99.90
5392;DHT22;2719;53.624;9.786;2022-10-16T05:28:23;13.00;99.90
5392;DHT22;2719;53.624;9.786;2022-10-16T05:30:50;13.00;99.90
5392;DHT22;2719;53.624;9.786;2022-10-16T05:33:19;13.00;99.90
5392;DHT22;2719;53.624;9.786;2022-10-16T05:35:46;13.00;99.90
5392;DHT22;2719;53.624;9.786;2022-10-16T05:38:13;12.90;99.90
5392;DHT22;2719;53.624;9.786;2022-10-16T05:40:41;12.90;99.90
5392;DHT22;2719;53.624;9.786;2022-10-16T05:43:07;13.00;99.90
5392;DHT22;2719;53.624;9.786;2022-10-16T05:45:34;13.00;99.90
5392;DHT22;2719;53.624;9.786;2022-10-16T05:48:01;13.00;99.90
5392;DHT22;2719;53.624;9.786;2022-10-16T05:50:27;13.00;99.90
5392;DHT22;2719;53.624;9.786;2022-10-16T05:52:54;13.00;99.90
5392;DHT22;2719;53.624;9.786;2022-10-16T05:55:21;13.00;99.90
5392;DHT22;2719;53.624;9.786;2022-10-16T05:57:49;13.00;99.90
5392;DHT22;2719;53.624;9.786;2022-10-16T06:00:15;12.90;99.90
5392;DHT22;2719;53.624;9.786;2022-10-16T06:02:42;13.00;99.90
5392;DHT22;2719;53.624;9.786;2022-10-16T06:05:09;13.00;99.90
5392;DHT22;2719;53.624;9.786;2022-10-16T06:07:35;13.00;99.90
5392;DHT22;2719;53.624;9.786;2022-10-16T06:10:03;13.00;99.90
5392;DHT22;2719;53.624;9.786;2022-10-16T06:12:30;13.00;99.90
5392;DHT22;2719;53.624;9.786;2022-10-16T06:14:58;13.00;99.90
5392;DHT22;2719;53.624;9.786;2022-10-16T06:17:25;13.00;99.90
5392;DHT22;2719;53.624;9.786;2022-10-16T06:19:51;13.00;99.90
5392;DHT22;2719;53.624;9.786;2022-10-16T06:22:18;13.00;99.90
5392;DHT22;2719;53.624;9.786;2022-10-16T06:24:45;13.00;99.90
5392;DHT22;2719;53.624;9.786;2022-10-16T06:27:12;13.00;99.90
5392;DHT22;2719;53.624;9.786;2022-10-16T06:29:39;13.00;99.90
5392;DHT22;2719;53.624;9.786;2022-10-16T06:32:07;13.00;99.90
5392;DHT22;2719;53.624;9.786;2022-10-16T06:34:35;13.00;99.90
5392;DHT22;2719;53.624;9.786;2022-10-16T06:37:01;13.00;99.90
5392;DHT22;2719;53.624;9.786;2022-10-16T06:39:28;13.00;99.90
5392;DHT22;2719;53.624;9.786;2022-10-16T06:41:55;13.00;99.90
5392;DHT22;2719;53.624;9.786;2022-10-16T06:44:21;12.90;99.90
5392;DHT22;2719;53.624;9.786;2022-10-16T06:46:48;13.00;99.90
5392;DHT22;2719;53.624;9.786;2022-10-16T06:49:16;13.00;99.90
5392;DHT22;2719;53.624;9.786;2022-10-16T06:51:47;13.00;99.90
5392;DHT22;2719;53.624;9.786;2022-10-16T06:54:15;13.10;99.90
5392;DHT22;2719;53.624;9.786;2022-10-16T06:56:41;13.10;99.90
5392;DHT22;2719;53.624;9.786;2022-10-16T06:59:08;13.20;99.90
5392;DHT22;2719;53.624;9.786;2022-10-16T07:01:35;13.20;99.90
5392;DHT22;2719;53.624;9.786;2022-10-16T07:04:02;13.30;99.90
5392;DHT22;2719;53.624;9.786;2022-10-16T07:06:31;13.30;99.90
5392;DHT22;2719;53.624;9.786;2022-10-16T07:09:00;13.30;99.90
5392;DHT22;2719;53.624;9.786;2022-10-16T07:11:27;13.30;99.90
5392;DHT22;2719;53.624;9.786;2022-10-16T07:13:53;13.30;99.90
5392;DHT22;2719;53.624;9.786;2022-10-16T07:16:21;13.30;99.90
5392;DHT22;2719;53.624;9.786;2022-10-16T07:18:49;13.30;99.90
5392;DHT22;2719;53.624;9.786;2022-10-16T07:21:18;13.40;99.90
5392;DHT22;2719;53.624;9.786;2022-10-16T07:23:50;13.40;99.90
5392;DHT22;2719;53.624;9.786;2022-10-16T07:26:17;13.50;99.90
5392;DHT22;2719;53.624;9.786;2022-10-16T07:28:43;13.50;99.90
5392;DHT22;2719;53.624;9.786;2022-10-16T07:31:12;13.60;99.90
5392;DHT22;2719;53.624;9.786;2022-10-16T07:33:40;13.70;99.90
5392;DHT22;2719;53.624;9.786;2022-10-16T07:36:09;13.80;99.90
5392;DHT22;2719;53.624;9.786;2022-10-16T07:38:36;13.90;99.90
5392;DHT22;2719;53.624;9.786;2022-10-16T07:41:06;13.90;99.90
5392;DHT22;2719;53.624;9.786;2022-10-16T07:43:34;13.90;99.90
5392;DHT22;2719;53.624;9.786;2022-10-16T07:46:00;14.00;99.90
5392;DHT22;2719;53.624;9.786;2022-10-16T07:48:28;14.00;99.90
5392;DHT22;2719;53.624;9.786;2022-10-16T07:50:57;14.10;99.90
5392;DHT22;2719;53.624;9.786;2022-10-16T07:53:24;14.10;99.90
5392;DHT22;2719;53.624;9.786;2022-10-16T07:55:51;14.10;99.90
5392;DHT22;2719;53.624;9.786;2022-10-16T07:58:19;14.10;99.90
5392;DHT22;2719;53.624;9.786;2022-10-16T08:00:45;14.10;99.90
5392;DHT22;2719;53.624;9.786;2022-10-16T08:03:12;14.00;99.90
5392;DHT22;2719;53.624;9.786;2022-10-16T08:05:39;14.00;99.90
5392;DHT22;2719;53.624;9.786;2022-10-16T08:08:05;14.00;99.90
5392;DHT22;2719;53.624;9.786;2022-10-16T08:10:32;14.00;99.90
5392;DHT22;2719;53.624;9.786;2022-10-16T08:12:59;14.10;99.90
5392;DHT22;2719;53.624;9.786;2022-10-16T08:15:27;14.10;99.90
5392;DHT22;2719;53.624;9.786;2022-10-16T08:17:58;14.20;99.90
5392;DHT22;2719;53.624;9.786;2022-10-16T08:20:25;14.30;99.90
5392;DHT22;2719;53.624;9.786;2022-10-16T08:22:51;14.30;99.90
5392;DHT22;2719;53.624;9.786;2022-10-16T08:25:19;14.40;99.90
5392;DHT22;2719;53.624;9.786;2022-10-16T08:27:46;14.50;99.90
5392;DHT22;2719;53.624;9.786;2022-10-16T08:30:12;14.60;99.90
5392;DHT22;2719;53.624;9.786;2022-10-16T08:32:40;14.70;99.90
5392;DHT22;2719;53.624;9.786;2022-10-16T08:35:08;14.70;99.90
5392;DHT22;2719;53.624;9.786;2022-10-16T08:37:35;14.70;99.90
5392;DHT22;2719;53.624;9.786;2022-10-16T08:40:03;14.70;99.90
5392;DHT22;2719;53.624;9.786;2022-10-16T08:42:39;14.70;99.90
5392;DHT22;2719;53.624;9.786;2022-10-16T08:45:17;14.80;99.90
5392;DHT22;2719;53.624;9.786;2022-10-16T08:47:51;14.80;99.90
5392;DHT22;2719;53.624;9.786;2022-10-16T08:50:24;14.90;99.90
5392;DHT22;2719;53.624;9.786;2022-10-16T08:52:52;14.90;99.90
5392;DHT22;2719;53.624;9.786;2022-10-16T08:55:32;15.00;99.90
5392;DHT22;2719;53.624;9.786;2022-10-16T08:58:00;15.00;99.90
5392;DHT22;2719;53.624;9.786;2022-10-16T09:00:27;15.20;99.90
5392;DHT22;2719;53.624;9.786;2022-10-16T09:03:06;15.20;99.90
5392;DHT22;2719;53.624;9.786;2022-10-16T09:06:09;15.20;99.90
5392;DHT22;2719;53.624;9.786;2022-10-16T09:08:45;15.20;99.90
5392;DHT22;2719;53.624;9.786;2022-10-16T09:11:20;15.30;99.90
5392;DHT22;2719;53.624;9.786;2022-10-16T09:13:53;15.20;99.90
5392;DHT22;2719;53.624;9.786;2022-10-16T09:16:27;15.30;99.90
5392;DHT22;2719;53.624;9.786;2022-10-16T09:19:02;15.40;99.90
5392;DHT22;2719;53.624;9.786;2022-10-16T09:21:31;15.50;99.90
5392;DHT22;2719;53.624;9.786;2022-10-16T09:24:07;15.50;99.90
5392;DHT22;2719;53.624;9.786;2022-10-16T09:26:36;15.50;99.90
5392;DHT22;2719;53.624;9.786;2022-10-16T09:29:03;15.50;99.90
5392;DHT22;2719;53.624;9.786;2022-10-16T09:31:30;15.60;99.90
5392;DHT22;2719;53.624;9.786;2022-10-16T09:34:00;15.60;99.90
5392;DHT22;2719;53.624;9.786;2022-10-16T09:36:34;15.70;99.90
5392;DHT22;2719;53.624;9.786;2022-10-16T09:39:04;15.80;99.90
5392;DHT22;2719;53.624;9.786;2022-10-16T09:41:33;15.90;99.90
5392;DHT22;2719;53.624;9.786;2022-10-16T09:44:02;16.00;99.90
5392;DHT22;2719;53.624;9.786;2022-10-16T09:46:31;16.00;99.90
5392;DHT22;2719;53.624;9.786;2022-10-16T09:49:00;16.10;99.90
5392;DHT22;2719;53.624;9.786;2022-10-16T09:51:29;16.10;99.90
5392;DHT22;2719;53.624;9.786;2022-10-16T09:53:58;16.20;99.90
5392;DHT22;2719;53.624;9.786;2022-10-16T09:56:27;16.20;99.90
5392;DHT22;2719;53.624;9.786;2022-10-16T09:58:56;16.20;99.90
5392;DHT22;2719;53.624;9.786;2022-10-16T10:01:27;16.30;99.90
5392;DHT22;2719;53.624;9.786;2022-10-16T10:03:56;16.50;99.90
5392;DHT22;2719;53.624;9.786;2022-10-16T10:06:29;16.50;99.90
5392;DHT22;2719;53.624;9.786;2022-10-16T10:09:03;16.60;99.90
5392;DHT22;2719;53.624;9.786;2022-10-16T10:11:38;16.60;99.90
5392;DHT22;2719;53.624;9.786;2022-10-16T10:14:05;16.70;99.90
5392;DHT22;2719;53.624;9.786;2022-10-16T10:16:32;16.60;99.90
5392;DHT22;2719;53.624;9.786;2022-10-16T10:18:59;16.70;99.90
5392;DHT22;2719;53.624;9.786;2022-10-16T10:21:27;16.80;99.90
5392;DHT22;2719;53.624;9.786;2022-10-16T10:23:57;16.80;99.90
5392;DHT22;2719;53.624;9.786;2022-10-16T10:26:28;16.70;99.90
5392;DHT22;2719;53.624;9.786;2022-10-16T10:29:01;16.80;99.90
5392;DHT22;2719;53.624;9.786;2022-10-16T10:31:34;17.00;99.90
5392;DHT22;2719;53.624;9.786;2022-10-16T10:34:16;17.00;99.90
5392;DHT22;2719;53.624;9.786;2022-10-16T10:36:50;17.00;99.90
5392;DHT22;2719;53.624;9.786;2022-10-16T10:39:24;16.90;99.90
5392;DHT22;2719;53.624;9.786;2022-10-16T10:42:06;16.90;99.90
5392;DHT22;2719;53.624;9.786;2022-10-16T10:44:55;16.90;99.90
5392;DHT22;2719;53.624;9.786;2022-10-16T10:47:32;16.90;99.90
5392;DHT22;2719;53.624;9.786;2022-10-16T10:50:14;17.00;99.90
5392;DHT22;2719;53.624;9.786;2022-10-16T10:52:57;17.10;99.90
5392;DHT22;2719;53.624;9.786;2022-10-16T10:55:32;17.30;99.90
5392;DHT22;2719;53.624;9.786;2022-10-16T10:58:12;17.40;99.90
5392;DHT22;2719;53.624;9.786;2022-10-16T11:00:47;17.50;99.90
5392;DHT22;2719;53.624;9.786;2022-10-16T11:03:32;17.50;99.90
5392;DHT22;2719;53.624;9.786;2022-10-16T11:06:06;17.60;99.90
5392;DHT22;2719;53.624;9.786;2022-10-16T11:08:39;17.70;99.90
5392;DHT22;2719;53.624;9.786;2022-10-16T11:11:10;17.80;99.90
5392;DHT22;2719;53.624;9.786;2022-10-16T11:13:43;17.90;99.90
5392;DHT22;2719;53.624;9.786;2022-10-16T11:16:17;18.00;99.90
5392;DHT22;2719;53.624;9.786;2022-10-16T11:18:49;18.10;99.90
5392;DHT22;2719;53.624;9.786;2022-10-16T11:21:19;18.00;99.90
5392;DHT22;2719;53.624;9.786;2022-10-16T11:23:51;17.90;99.90
5392;DHT22;2719;53.624;9.786;2022-10-16T11:26:21;17.80;99.90
5392;DHT22;2719;53.624;9.786;2022-10-16T11:28:50;17.70;99.90
5392;DHT22;2719;53.624;9.786;2022-10-16T11:31:24;17.60;99.90
5392;DHT22;2719;53.624;9.786;2022-10-16T11:33:59;17.70;99.90
5392;DHT22;2719;53.624;9.786;2022-10-16T11:36:35;17.80;99.90
5392;DHT22;2719;53.624;9.786;2022-10-16T11:39:14;17.70;99.90
5392;DHT22;2719;53.624;9.786;2022-10-16T11:41:47;17.70;99.90
5392;DHT22;2719;53.624;9.786;2022-10-16T11:44:21;17.80;99.90
5392;DHT22;2719;53.624;9.786;2022-10-16T11:46:58;17.90;99.90
5392;DHT22;2719;53.624;9.786;2022-10-16T11:49:31;18.10;99.90
5392;DHT22;2719;53.624;9.786;2022-10-16T11:52:03;18.20;99.90
5392;DHT22;2719;53.624;9.786;2022-10-16T11:54:39;18.30;99.90
5392;DHT22;2719;53.624;9.786;2022-10-16T11:57:13;18.40;99.90
5392;DHT22;2719;53.624;9.786;2022-10-16T11:59:45;18.40;99.90
5392;DHT22;2719;53.624;9.786;2022-10-16T12:02:32;18.40;99.90
5392;DHT22;2719;53.624;9.786;2022-10-16T12:05:10;18.60;99.90
5392;DHT22;2719;53.624;9.786;2022-10-16T12:07:45;18.60;99.90
5392;DHT22;2719;53.624;9.786;2022-10-16T12:10:21;18.80;99.90
5392;DHT22;2719;53.624;9.786;2022-10-16T12:12:48;18.90;99.90
5392;DHT22;2719;53.624;9.786;2022-10-16T12:15:22;18.90;99.90
5392;DHT22;2719;53.624;9.786;2022-10-16T12:17:49;18.80;99.90
5392;DHT22;2719;53.624;9.786;2022-10-16T12:20:25;18.80;99.90
5392;DHT22;2719;53.624;9.786;2022-10-16T12:22:56;18.90;99.90
5392;DHT22;2719;53.624;9.786;2022-10-16T12:25:27;18.90;99.90
5392;DHT22;2719;53.624;9.786;2022-10-16T12:28:03;18.70;99.90
5392;DHT22;2719;53.624;9.786;2022-10-16T12:30:32;18.70;99.90
5392;DHT22;2719;53.624;9.786;2022-10-16T12:33:01;18.50;99.90
5392;DHT22;2719;53.624;9.786;2022-10-16T12:35:31;18.30;99.90
5392;DHT22;2719;53.624;9.786;2022-10-16T12:38:07;18.30;99.90
5392;DHT22;2719;53.624;9.786;2022-10-16T12:40:37;18.30;99.90
5392;DHT22;2719;53.624;9.786;2022-10-16T12:43:28;18.50;99.90
5392;DHT22;2719;53.624;9.786;2022-10-16T12:46:04;18.50;99.90
5392;DHT22;2719;53.624;9.786;2022-10-16T12:48:31;18.50;99.90
5392;DHT22;2719;53.624;9.786;2022-10-16T12:50:57;18.50;99.90
5392;DHT22;2719;53.624;9.786;2022-10-16T12:53:35;18.40;99.90
5392;DHT22;2719;53.624;9.786;2022-10-16T12:56:11;18.20;99.90
5392;DHT22;2719;53.624;9.786;2022-10-16T12:58:55;18.20;99.90
5392;DHT22;2719;53.624;9.786;2022-10-16T13:01:34;18.30;99.90
5392;DHT22;2719;53.624;9.786;2022-10-16T13:04:18;18.50;99.90
5392;DHT22;2719;53.624;9.786;2022-10-16T13:06:53;18.70;99.90
5392;DHT22;2719;53.624;9.786;2022-10-16T13:09:33;18.90;99.90
5392;DHT22;2719;53.624;9.786;2022-10-16T13:12:16;19.00;99.90
5392;DHT22;2719;53.624;9.786;2022-10-16T13:15:06;19.00;99.90
5392;DHT22;2719;53.624;9.786;2022-10-16T13:17:42;18.90;99.90
5392;DHT22;2719;53.624;9.786;2022-10-16T13:20:18;18.90;99.90
5392;DHT22;2719;53.624;9.786;2022-10-16T13:22:54;19.00;99.90
5392;DHT22;2719;53.624;9.786;2022-10-16T13:25:32;18.90;99.90
5392;DHT22;2719;53.624;9.786;2022-10-16T13:28:04;18.90;99.90
5392;DHT22;2719;53.624;9.786;2022-10-16T13:30:34;18.90;99.90
5392;DHT22;2719;53.624;9.786;2022-10-16T13:33:06;18.90;99.90
5392;DHT22;2719;53.624;9.786;2022-10-16T13:35:34;19.10;99.90
5392;DHT22;2719;53.624;9.786;2022-10-16T13:38:11;19.10;99.90
5392;DHT22;2719;53.624;9.786;2022-10-16T13:40:52;19.20;99.90
5392;DHT22;2719;53.624;9.786;2022-10-16T13:43:23;19.40;99.90
5392;DHT22;2719;53.624;9.786;2022-10-16T13:45:55;19.20;99.90
5392;DHT22;2719;53.624;9.786;2022-10-16T13:48:23;19.20;99.90
5392;DHT22;2719;53.624;9.786;2022-10-16T13:51:05;19.30;99.90
5392;DHT22;2719;53.624;9.786;2022-10-16T13:53:33;19.50;99.90
5392;DHT22;2719;53.624;9.786;2022-10-16T13:56:03;19.40;99.90
5392;DHT22;2719;53.624;9.786;2022-10-16T13:58:32;19.40;99.90
5392;DHT22;2719;53.624;9.786;2022-10-16T14:01:00;19.50;99.90
5392;DHT22;2719;53.624;9.786;2022-10-16T14:03:28;19.50;99.90
5392;DHT22;2719;53.624;9.786;2022-10-16T14:05:59;19.50;99.90
5392;DHT22;2719;53.624;9.786;2022-10-16T14:08:28;19.40;99.90
5392;DHT22;2719;53.624;9.786;2022-10-16T14:10:57;19.50;99.90
5392;DHT22;2719;53.624;9.786;2022-10-16T14:13:29;19.50;99.90
5392;DHT22;2719;53.624;9.786;2022-10-16T14:16:00;19.50;99.90
5392;DHT22;2719;53.624;9.786;2022-10-16T14:18:29;19.60;99.90
5392;DHT22;2719;53.624;9.786;2022-10-16T14:21:03;19.60;99.90
5392;DHT22;2719;53.624;9.786;2022-10-16T14:23:31;19.70;99.90
5392;DHT22;2719;53.624;9.786;2022-10-16T14:26:13;19.70;99.90
5392;DHT22;2719;53.624;9.786;2022-10-16T14:28:41;19.70;99.90
5392;DHT22;2719;53.624;9.786;2022-10-16T14:31:25;19.80;99.90
5392;DHT22;2719;53.624;9.786;2022-10-16T14:33:51;19.60;99.90
5392;DHT22;2719;53.624;9.786;2022-10-16T14:36:18;19.60;99.90
5392;DHT22;2719;53.624;9.786;2022-10-16T14:38:50;19.50;99.90
5392;DHT22;2719;53.624;9.786;2022-10-16T14:41:20;19.40;99.90
5392;DHT22;2719;53.624;9.786;2022-10-16T14:43:50;19.30;99.90
5392;DHT22;2719;53.624;9.786;2022-10-16T14:46:22;19.20;99.90
5392;DHT22;2719;53.624;9.786;2022-10-16T14:48:59;19.20;99.90
5392;DHT22;2719;53.624;9.786;2022-10-16T14:51:26;19.20;99.90
5392;DHT22;2719;53.624;9.786;2022-10-16T14:53:53;19.10;99.90
5392;DHT22;2719;53.624;9.786;2022-10-16T14:56:21;19.10;99.90
5392;DHT22;2719;53.624;9.786;2022-10-16T14:58:50;19.10;99.90
5392;DHT22;2719;53.624;9.786;2022-10-16T15:01:17;18.90;99.90
5392;DHT22;2719;53.624;9.786;2022-10-16T15:03:45;18.90;99.90
5392;DHT22;2719;53.624;9.786;2022-10-16T15:06:13;18.80;99.90
5392;DHT22;2719;53.624;9.786;2022-10-16T15:08:40;18.80;99.90
5392;DHT22;2719;53.624;9.786;2022-10-16T15:11:10;18.80;99.90
5392;DHT22;2719;53.624;9.786;2022-10-16T15:13:38;18.80;99.90
5392;DHT22;2719;53.624;9.786;2022-10-16T15:16:08;18.70;99.90
5392;DHT22;2719;53.624;9.786;2022-10-16T15:18:36;18.70;99.90
5392;DHT22;2719;53.624;9.786;2022-10-16T15:21:04;18.70;99.90
5392;DHT22;2719;53.624;9.786;2022-10-16T15:23:31;18.70;99.90
5392;DHT22;2719;53.624;9.786;2022-10-16T15:25:57;18.70;99.90
5392;DHT22;2719;53.624;9.786;2022-10-16T15:28:25;18.70;99.90
5392;DHT22;2719;53.624;9.786;2022-10-16T15:30:54;18.60;99.90
5392;DHT22;2719;53.624;9.786;2022-10-16T15:33:22;18.60;99.90
5392;DHT22;2719;53.624;9.786;2022-10-16T15:35:51;18.60;99.90
5392;DHT22;2719;53.624;9.786;2022-10-16T15:38:20;18.70;99.90
5392;DHT22;2719;53.624;9.786;2022-10-16T15:40:48;18.60;99.90
5392;DHT22;2719;53.624;9.786;2022-10-16T15:43:15;18.50;99.90
5392;DHT22;2719;53.624;9.786;2022-10-16T15:45:42;18.40;99.90
5392;DHT22;2719;53.624;9.786;2022-10-16T15:48:11;18.40;99.90
5392;DHT22;2719;53.624;9.786;2022-10-16T15:50:39;18.30;99.90
5392;DHT22;2719;53.624;9.786;2022-10-16T15:53:06;18.30;99.90
5392;DHT22;2719;53.624;9.786;2022-10-16T15:55:34;18.20;99.90
5392;DHT22;2719;53.624;9.786;2022-10-16T15:58:03;18.10;99.90
5392;DHT22;2719;53.624;9.786;2022-10-16T16:00:29;18.10;99.90
5392;DHT22;2719;53.624;9.786;2022-10-16T16:02:56;18.00;99.90
5392;DHT22;2719;53.624;9.786;2022-10-16T16:05:23;17.90;99.90
5392;DHT22;2719;53.624;9.786;2022-10-16T16:07:50;17.80;99.90
5392;DHT22;2719;53.624;9.786;2022-10-16T16:10:17;17.70;99.90
5392;DHT22;2719;53.624;9.786;2022-10-16T16:12:47;17.70;99.90
5392;DHT22;2719;53.624;9.786;2022-10-16T16:15:18;17.70;99.90
5392;DHT22;2719;53.624;9.786;2022-10-16T16:17:45;17.60;99.90
5392;DHT22;2719;53.624;9.786;2022-10-16T16:20:11;17.60;99.90